Time;durP1;ratioP1;P1;durP2;ratioP2;P2;SDS_P1;SDS_P2;PMS_P1;PMS_P2;Temp;Humidity;BMP_temperature;BMP_pressure;BME280_temperature;BME280_humidity;BME280_pressure;Samples;Min_cycle;Max_cycle;Signal;HPM_P1;HPM_P2
2023/07/10 00:00:16;;;;;;;;;;;;;;;26.32;38.02;100693.50;5446801;32;35023;-79
2023/07/10 00:03:19;;;;;;;;;;;;;;;25.97;39.39;100704.25;5461255;32;35208;-79
2023/07/10 00:06:21;;;;;;;;;;;;;;;25.91;38.87;100695.78;5450549;32;35213;-78
2023/07/10 00:09:23;;;;;;;;;;;;;;;25.78;39.70;100687.22;5467926;32;35265;-78
2023/07/10 00:12:25;;;;;;;;;;;;;;;25.96;39.21;100684.56;5464875;32;35693;-78
2023/07/10 00:15:26;;;;;;;;;;;;;;;25.55;40.34;100685.91;5446734;32;35027;-76
2023/07/10 00:18:29;;;;;;;;;;;;;;;25.49;40.58;100684.66;5459521;32;34505;-78
2023/07/10 00:21:31;;;;;;;;;;;;;;;25.79;39.89;100694.31;5450047;32;34776;-78
2023/07/10 00:24:33;;;;;;;;;;;;;;;25.45;40.99;100687.81;5461295;32;37032;-79
2023/07/10 00:27:35;;;;;;;;;;;;;;;26.38;38.69;100692.03;5465371;32;34606;-79
2023/07/10 00:30:37;;;;;;;;;;;;;;;26.31;38.98;100701.75;5468204;32;35268;-79
2023/07/10 00:33:39;;;;;;;;;;;;;;;25.53;40.65;100704.87;5459483;32;34170;-78
2023/07/10 00:36:41;;;;;;;;;;;;;;;25.88;40.06;100700.63;5462808;32;36040;-78
2023/07/10 00:39:44;;;;;;;;;;;;;;;25.43;40.96;100697.84;5467522;32;34309;-78
2023/07/10 00:42:46;;;;;;;;;;;;;;;25.24;41.44;100696.94;5463174;32;35346;-78
2023/07/10 00:45:48;;;;;;;;;;;;;;;25.19;41.63;100696.53;5446589;32;34883;-79
2023/07/10 00:48:52;;;;;;;;;;;;;;;25.08;41.93;100696.72;5450327;32;34347;-78
2023/07/10 00:52:00;;;;;;;;;;;;;;;25.14;41.72;100706.88;5438763;32;35291;-78
2023/07/10 00:55:05;;;;;;;;;;;;;;;25.00;41.59;100693.88;5467533;32;35704;-78
2023/07/10 00:58:23;;;;;;;;;;;;;;;24.99;41.63;100689.47;5446688;32;34667;-77
2023/07/10 01:01:32;;;;;;;;;;;;;;;25.20;41.28;100690.16;5464748;32;35051;-78
2023/07/10 01:04:34;;;;;;;;;;;;;;;25.34;40.66;100695.06;5451533;32;35500;-78
2023/07/10 01:07:38;;;;;;;;;;;;;;;24.75;41.87;100696.19;5447096;32;34741;-79
2023/07/10 01:10:40;;;;;;;;;;;;;;;25.26;41.23;100694.97;5452583;32;36543;-78
2023/07/10 01:13:42;;;;;;;;;;;;;;;25.85;39.79;100698.25;5436993;32;34830;-79
2023/07/10 01:16:44;;;;;;;;;;;;;;;25.19;40.82;100699.22;5466630;32;35214;-78
2023/07/10 01:19:46;;;;;;;;;;;;;;;25.52;40.50;100697.81;5448697;32;34694;-79
2023/07/10 01:22:48;;;;;;;;;;;;;;;25.43;40.75;100695.16;5436036;32;34560;-77
2023/07/10 01:25:58;;;;;;;;;;;;;;;25.38;40.83;100695.63;5452244;32;34736;-79
2023/07/10 01:29:00;;;;;;;;;;;;;;;25.48;40.67;100693.72;5436348;32;36284;-77
2023/07/10 01:32:03;;;;;;;;;;;;;;;25.38;40.96;100695.63;5439862;32;35117;-78
2023/07/10 01:35:05;;;;;;;;;;;;;;;25.31;41.16;100699.88;5435564;32;34968;-77
2023/07/10 01:38:08;;;;;;;;;;;;;;;24.75;42.34;100696.19;5450123;32;34923;-78
2023/07/10 01:41:22;;;;;;;;;;;;;;;24.55;42.80;100699.91;5446829;32;34906;-78
2023/07/10 01:44:24;;;;;;;;;;;;;;;25.16;41.46;100699.50;5462007;32;36053;-77
2023/07/10 01:47:26;;;;;;;;;;;;;;;24.73;42.48;100703.56;5449347;32;35628;-78
2023/07/10 01:50:28;;;;;;;;;;;;;;;24.73;42.28;100695.50;5460564;32;34764;-78
2023/07/10 01:53:30;;;;;;;;;;;;;;;24.87;42.29;100701.41;5453758;32;34323;-77
2023/07/10 01:56:32;;;;;;;;;;;;;;;24.64;43.16;100703.56;5462245;32;34847;-79
2023/07/10 01:59:34;;;;;;;;;;;;;;;24.85;42.79;100702.38;5450593;32;35391;-77
2023/07/10 02:02:36;;;;;;;;;;;;;;;24.66;43.14;100704.25;5449695;32;34888;-78
2023/07/10 02:05:38;;;;;;;;;;;;;;;25.33;41.72;100698.75;5462544;32;34667;-77
2023/07/10 02:08:40;;;;;;;;;;;;;;;24.67;43.20;100697.91;5467478;32;35745;-78
2023/07/10 02:11:42;;;;;;;;;;;;;;;24.72;43.13;100701.84;5434055;32;34578;-77
2023/07/10 02:14:45;;;;;;;;;;;;;;;25.06;42.42;100698.72;5443533;32;34183;-79
2023/07/10 02:17:47;;;;;;;;;;;;;;;25.25;42.37;100692.41;5453707;32;35578;-80
2023/07/10 02:20:50;;;;;;;;;;;;;;;24.86;43.08;100697.87;5464841;32;34778;-79
2023/07/10 02:23:52;;;;;;;;;;;;;;;24.77;43.39;100699.56;5464842;32;34829;-78
2023/07/10 02:26:54;;;;;;;;;;;;;;;24.63;43.64;100702.72;5449674;32;36898;-79
2023/07/10 02:29:56;;;;;;;;;;;;;;;24.01;45.09;100696.72;5453811;32;34670;-80
2023/07/10 02:32:58;;;;;;;;;;;;;;;24.16;45.02;100704.38;5461827;32;35023;-80
2023/07/10 02:36:01;;;;;;;;;;;;;;;24.77;43.88;100688.81;5452063;32;35096;-79
2023/07/10 02:39:03;;;;;;;;;;;;;;;24.34;45.14;100697.31;5447562;32;34575;-79
2023/07/10 02:42:05;;;;;;;;;;;;;;;24.53;44.40;100694.63;5463530;32;34773;-78
2023/07/10 02:45:07;;;;;;;;;;;;;;;24.46;44.77;100695.34;5449928;32;35639;-77
2023/07/10 02:48:09;;;;;;;;;;;;;;;24.91;43.94;100695.56;5458548;32;32447;-78
2023/07/10 02:51:11;;;;;;;;;;;;;;;24.65;44.30;100698.03;5451469;32;34454;-78
2023/07/10 02:54:13;;;;;;;;;;;;;;;24.04;45.62;100706.34;5448395;32;35004;-78
2023/07/10 02:57:15;;;;;;;;;;;;;;;23.95;46.25;100699.09;5451343;32;34226;-78
2023/07/10 03:00:17;;;;;;;;;;;;;;;24.09;45.97;100698.72;5462560;32;36362;-78
2023/07/10 03:03:19;;;;;;;;;;;;;;;24.67;44.51;100701.44;5448547;32;34951;-79
2023/07/10 03:06:23;;;;;;;;;;;;;;;24.53;44.90;100700.00;5467700;32;36775;-77
2023/07/10 03:09:25;;;;;;;;;;;;;;;24.64;44.45;100696.34;5462335;32;35242;-79
2023/07/10 03:12:27;;;;;;;;;;;;;;;24.83;44.39;100695.47;5437386;32;35069;-79
2023/07/10 03:15:29;;;;;;;;;;;;;;;24.37;45.33;100698.91;5447501;32;34733;-78
2023/07/10 03:18:31;;;;;;;;;;;;;;;24.35;45.99;100700.88;5451859;32;36518;-78
2023/07/10 03:21:33;;;;;;;;;;;;;;;24.35;46.08;100701.75;5434097;32;35808;-79
2023/07/10 03:24:35;;;;;;;;;;;;;;;24.42;45.81;100699.34;5449680;32;34787;-79
2023/07/10 03:27:37;;;;;;;;;;;;;;;24.42;45.68;100696.66;5465001;32;35027;-78
2023/07/10 03:30:40;;;;;;;;;;;;;;;24.14;46.49;100707.19;5434555;32;34784;-79
2023/07/10 03:33:42;;;;;;;;;;;;;;;23.92;47.61;100700.22;5466544;32;34338;-77
2023/07/10 03:36:44;;;;;;;;;;;;;;;24.66;45.85;100693.50;5446753;32;34361;-78
2023/07/10 03:39:46;;;;;;;;;;;;;;;24.24;46.53;100691.94;5450993;32;33587;-78
2023/07/10 03:42:48;;;;;;;;;;;;;;;24.23;47.14;100692.94;5461409;32;35501;-79
2023/07/10 03:45:50;;;;;;;;;;;;;;;24.67;46.16;100681.78;5459724;32;34655;-80
2023/07/10 03:48:52;;;;;;;;;;;;;;;24.34;46.97;100691.09;5435311;32;34874;-80
2023/07/10 03:51:54;;;;;;;;;;;;;;;24.26;47.37;100689.94;5446698;32;35070;-78
2023/07/10 03:54:56;;;;;;;;;;;;;;;24.21;47.58;100686.81;5471494;32;34746;-78
2023/07/10 03:57:58;;;;;;;;;;;;;;;24.59;46.65;100683.31;5460710;32;34249;-79
2023/07/10 04:01:01;;;;;;;;;;;;;;;24.17;47.96;100685.44;5465069;32;35290;-78
2023/07/10 04:04:03;;;;;;;;;;;;;;;24.22;47.94;100688.56;5462737;32;37187;-77
2023/07/10 04:07:05;;;;;;;;;;;;;;;24.73;46.77;100686.56;5463953;32;34829;-78
2023/07/10 04:10:07;;;;;;;;;;;;;;;24.08;48.46;100697.00;5452477;32;35354;-78
2023/07/10 04:13:09;;;;;;;;;;;;;;;24.56;47.46;100682.78;5447209;32;34122;-78
2023/07/10 04:16:18;;;;;;;;;;;;;;;24.26;48.60;100694.47;5451826;32;34426;-77
2023/07/10 04:19:20;;;;;;;;;;;;;;;24.79;46.97;100681.44;5452453;32;35766;-78
2023/07/10 04:22:22;;;;;;;;;;;;;;;25.49;45.51;100689.19;5452721;32;35579;-78
2023/07/10 04:25:24;;;;;;;;;;;;;;;25.87;44.28;100689.00;5463277;32;34836;-78
2023/07/10 04:28:26;;;;;;;;;;;;;;;24.96;46.41;100687.94;5449545;32;35394;-78
2023/07/10 04:31:28;;;;;;;;;;;;;;;24.61;47.11;100685.03;5454006;32;35534;-79
2023/07/10 04:34:31;;;;;;;;;;;;;;;24.88;46.53;100681.59;5447692;32;35423;-78
2023/07/10 04:37:33;;;;;;;;;;;;;;;25.77;44.76;100688.22;5452089;32;34788;-78
2023/07/10 04:40:35;;;;;;;;;;;;;;;25.38;45.88;100693.78;5463157;32;35414;-79
2023/07/10 04:43:36;;;;;;;;;;;;;;;25.07;46.88;100697.72;5453200;32;34887;-78
2023/07/10 04:46:39;;;;;;;;;;;;;;;26.19;44.04;100701.13;5445773;32;35632;-79
2023/07/10 04:49:43;;;;;;;;;;;;;;;25.85;44.94;100684.78;5452755;32;35043;-78
2023/07/10 04:52:45;;;;;;;;;;;;;;;25.57;45.50;100692.00;5452351;32;34763;-78
2023/07/10 04:55:47;;;;;;;;;;;;;;;26.09;44.11;100685.03;5462527;32;35076;-79
2023/07/10 04:58:56;;;;;;;;;;;;;;;25.76;44.86;100691.94;5467852;32;35564;-79
2023/07/10 05:01:58;;;;;;;;;;;;;;;26.77;42.52;100676.38;5463840;32;37501;-78
2023/07/10 05:05:00;;;;;;;;;;;;;;;26.92;42.04;100679.34;5466459;32;34657;-79
2023/07/10 05:08:03;;;;;;;;;;;;;;;27.57;41.03;100689.69;5465147;32;36881;-78
2023/07/10 05:11:05;;;;;;;;;;;;;;;29.11;36.14;100678.19;5452802;32;35482;-78
2023/07/10 05:14:07;;;;;;;;;;;;;;;29.46;35.46;100687.75;5466512;32;34840;-79
2023/07/10 05:17:09;;;;;;;;;;;;;;;28.27;37.47;100703.72;5462087;32;35341;-78
2023/07/10 05:20:11;;;;;;;;;;;;;;;28.92;36.43;100698.37;5466828;32;34678;-78
2023/07/10 05:23:14;;;;;;;;;;;;;;;29.75;34.99;100688.97;5447202;32;35178;-79
2023/07/10 05:26:16;;;;;;;;;;;;;;;29.19;35.94;100694.44;5463939;32;35505;-78
2023/07/10 05:29:18;;;;;;;;;;;;;;;29.00;36.69;100690.25;5464022;32;35102;-78
2023/07/10 05:32:20;;;;;;;;;;;;;;;29.45;36.38;100691.47;5459090;32;34546;-78
2023/07/10 05:35:22;;;;;;;;;;;;;;;29.47;35.20;100691.28;5466647;32;34262;-79
2023/07/10 05:38:25;;;;;;;;;;;;;;;31.38;32.04;100684.97;5430334;32;34900;-81
2023/07/10 05:41:28;;;;;;;;;;;;;;;30.29;33.36;100697.16;5460992;32;34620;-83
2023/07/10 05:44:30;;;;;;;;;;;;;;;29.63;34.33;100692.09;5449471;32;36123;-78
2023/07/10 05:47:32;;;;;;;;;;;;;;;30.52;33.25;100697.97;5444032;32;34798;-74
2023/07/10 05:50:35;;;;;;;;;;;;;;;32.00;30.11;100692.66;5444772;32;35330;-78
2023/07/10 05:53:37;;;;;;;;;;;;;;;32.12;30.07;100693.84;5406672;32;33532;-78
2023/07/10 05:56:39;;;;;;;;;;;;;;;33.15;29.06;100678.84;5363772;32;34158;-76
2023/07/10 05:59:41;;;;;;;;;;;;;;;32.32;30.65;100696.75;5403903;32;35262;-76
2023/07/10 06:02:43;;;;;;;;;;;;;;;33.65;27.96;100682.28;5409965;32;35556;-74
2023/07/10 06:05:52;;;;;;;;;;;;;;;34.67;26.16;100678.53;5419030;32;35653;-71
2023/07/10 06:08:54;;;;;;;;;;;;;;;34.26;26.30;100684.97;5394614;32;34878;-73
2023/07/10 06:11:56;;;;;;;;;;;;;;;32.58;29.29;100691.59;5412323;32;34335;-76
2023/07/10 06:14:58;;;;;;;;;;;;;;;33.56;28.14;100681.63;5412604;32;35241;-77
2023/07/10 06:18:00;;;;;;;;;;;;;;;34.73;26.67;100678.53;5420775;32;35631;-72
2023/07/10 06:21:02;;;;;;;;;;;;;;;33.07;29.24;100673.56;5418205;32;35701;-77
2023/07/10 06:24:06;;;;;;;;;;;;;;;33.52;28.82;100669.44;5411680;32;36826;-71
2023/07/10 06:27:10;;;;;;;;;;;;;;;35.72;25.47;100666.53;5413008;32;34204;-70
2023/07/10 06:30:12;;;;;;;;;;;;;;;33.81;28.43;100678.31;5421851;32;35595;-78
2023/07/10 06:33:14;;;;;;;;;;;;;;;34.51;27.61;100668.03;5406160;32;34988;-71
2023/07/10 06:36:16;;;;;;;;;;;;;;;34.82;27.37;100673.69;5397519;32;34301;-70
2023/07/10 06:39:18;;;;;;;;;;;;;;;34.49;27.98;100673.69;5413595;32;34557;-68
2023/07/10 06:42:21;;;;;;;;;;;;;;;34.65;27.64;100666.97;5402097;32;34633;-73
2023/07/10 06:45:23;;;;;;;;;;;;;;;34.92;27.71;100671.41;5415130;32;32983;-74
2023/07/10 06:48:25;;;;;;;;;;;;;;;36.87;24.96;100666.38;5416941;32;35419;-69
2023/07/10 06:51:27;;;;;;;;;;;;;;;34.63;27.72;100660.87;5416887;32;34437;-78
2023/07/10 06:54:29;;;;;;;;;;;;;;;36.47;25.41;100661.25;5407626;32;34697;-74
2023/07/10 06:57:31;;;;;;;;;;;;;;;35.97;26.15;100669.34;5393434;32;35734;-71
2023/07/10 07:00:33;;;;;;;;;;;;;;;35.78;26.66;100667.53;5384081;32;34196;-80
2023/07/10 07:03:36;;;;;;;;;;;;;;;35.64;26.75;100660.47;5412023;32;36425;-76
2023/07/10 07:06:40;;;;;;;;;;;;;;;35.71;26.61;100658.53;5419983;32;34123;-71
2023/07/10 07:09:43;;;;;;;;;;;;;;;37.71;23.91;100645.59;5383877;32;1006272;-75
2023/07/10 07:12:46;;;;;;;;;;;;;;;37.85;23.92;100643.53;5403551;32;34622;-84
2023/07/10 07:15:52;;;;;;;;;;;;;;;39.30;21.99;100647.66;5398972;32;34682;-79
2023/07/10 07:18:55;;;;;;;;;;;;;;;37.54;24.34;100645.41;5418937;32;36233;-82
2023/07/10 07:22:12;;;;;;;;;;;;;;;36.79;25.44;100640.09;5424610;32;35200;-71
2023/07/10 07:25:14;;;;;;;;;;;;;;;37.76;24.49;100636.69;5421148;32;34315;-74
2023/07/10 07:28:16;;;;;;;;;;;;;;;38.05;24.11;100626.75;5411986;32;35356;-82
2023/07/10 07:31:21;;;;;;;;;;;;;;;39.00;22.90;100634.88;5418423;32;34440;-80
2023/07/10 07:34:23;;;;;;;;;;;;;;;39.86;22.07;100640.50;5412994;32;37093;-78
2023/07/10 07:37:25;;;;;;;;;;;;;;;38.61;23.86;100640.00;5424665;32;34227;-80
2023/07/10 07:40:28;;;;;;;;;;;;;;;37.17;25.67;100633.63;5415764;32;34650;-74
2023/07/10 07:43:38;;;;;;;;;;;;;;;38.16;24.90;100626.81;5420577;32;34318;-82
2023/07/10 07:46:40;;;;;;;;;;;;;;;39.13;23.39;100623.63;5407120;32;32989;-69
2023/07/10 07:49:42;;;;;;;;;;;;;;;37.94;24.56;100622.94;5420829;32;34928;-67
2023/07/10 07:52:44;;;;;;;;;;;;;;;38.60;23.52;100619.13;5416117;32;35790;-71
2023/07/10 07:55:46;;;;;;;;;;;;;;;39.46;22.91;100624.88;5393800;32;35807;-75
2023/07/10 07:58:48;;;;;;;;;;;;;;;41.11;20.68;100628.25;5403468;32;34192;-73
2023/07/10 08:01:51;;;;;;;;;;;;;;;40.68;21.38;100616.06;5393598;32;35749;-70
2023/07/10 08:04:53;;;;;;;;;;;;;;;41.19;20.18;100627.78;5360993;32;34364;-73
2023/07/10 08:07:56;;;;;;;;;;;;;;;39.93;20.50;100620.00;5350326;32;35659;-82
2023/07/10 08:10:58;;;;;;;;;;;;;;;38.07;21.74;100619.16;5350131;32;36346;-72
2023/07/10 08:14:00;;;;;;;;;;;;;;;37.43;22.49;100613.28;5368565;32;34345;-70
2023/07/10 08:17:02;;;;;;;;;;;;;;;38.71;21.16;100617.50;5361804;32;34231;-70
2023/07/10 08:20:07;;;;;;;;;;;;;;;37.76;22.24;100614.75;5366452;32;35657;-79
2023/07/10 08:23:09;;;;;;;;;;;;;;;39.04;21.01;100608.59;5357140;32;35232;-72
2023/07/10 08:26:11;;;;;;;;;;;;;;;39.94;20.04;100615.34;5368786;32;34349;-75
2023/07/10 08:29:27;;;;;;;;;;;;;;;39.90;20.19;100608.66;5352310;32;35318;-68
2023/07/10 08:32:29;;;;;;;;;;;;;;;38.76;21.38;100603.00;5373913;32;34343;-71
2023/07/10 08:35:31;;;;;;;;;;;;;;;40.32;19.21;100603.66;5371065;32;34104;-68
2023/07/10 08:38:36;;;;;;;;;;;;;;;39.30;20.96;100592.66;5356345;32;35711;-75
2023/07/10 08:41:41;;;;;;;;;;;;;;;38.95;20.02;100593.53;5353297;32;34134;-74
2023/07/10 08:44:43;;;;;;;;;;;;;;;39.39;20.23;100591.19;5364237;32;35757;-81
2023/07/10 08:47:48;;;;;;;;;;;;;;;38.05;20.46;100596.59;5344851;32;34666;-75
2023/07/10 08:50:50;;;;;;;;;;;;;;;37.96;20.14;100589.78;5362850;32;34258;-78
2023/07/10 08:54:03;;;;;;;;;;;;;;;38.29;19.54;100581.88;5371764;32;35475;-68
2023/07/10 08:57:11;;;;;;;;;;;;;;;38.90;19.16;100586.06;5370552;32;35970;-71
2023/07/10 09:00:14;;;;;;;;;;;;;;;38.72;19.82;100580.69;5362356;32;34337;-68
2023/07/10 09:03:36;;;;;;;;;;;;;;;38.80;20.35;100576.75;5372918;32;35096;-77
2023/07/10 09:06:42;;;;;;;;;;;;;;;38.61;19.61;100568.59;5371625;32;34979;-77
2023/07/10 09:09:48;;;;;;;;;;;;;;;37.59;21.02;100577.00;5341922;32;35741;-74
2023/07/10 09:12:51;;;;;;;;;;;;;;;38.85;19.84;100574.12;5344805;32;35777;-74
2023/07/10 09:15:58;;;;;;;;;;;;;;;39.13;19.77;100581.56;5348862;32;34332;-70
2023/07/10 09:19:03;;;;;;;;;;;;;;;37.97;20.92;100584.06;5360939;32;35650;-74
2023/07/10 09:22:08;;;;;;;;;;;;;;;38.88;20.36;100581.84;5348628;32;35361;-80
2023/07/10 09:25:11;;;;;;;;;;;;;;;40.63;18.48;100576.56;5383031;32;34173;-71
2023/07/10 09:28:16;;;;;;;;;;;;;;;38.02;21.87;100581.44;5380051;32;34629;-77
2023/07/10 09:31:33;;;;;;;;;;;;;;;38.76;21.08;100573.63;5373167;32;34411;-78
2023/07/10 09:34:46;;;;;;;;;;;;;;;38.28;22.15;100568.38;5375746;32;35977;-76
2023/07/10 09:37:48;;;;;;;;;;;;;;;37.59;23.39;100559.72;5368761;32;34076;-76
2023/07/10 09:40:53;;;;;;;;;;;;;;;40.56;20.17;100546.47;5365086;32;36778;-83
2023/07/10 09:43:59;;;;;;;;;;;;;;;41.19;19.19;100545.09;5361142;32;36046;-73
2023/07/10 09:47:05;;;;;;;;;;;;;;;41.26;19.37;100548.47;5362653;32;36776;-71
2023/07/10 09:50:15;;;;;;;;;;;;;;;40.67;19.95;100537.25;5361456;32;35816;-75
2023/07/10 09:53:46;;;;;;;;;;;;;;;41.15;18.99;100546.69;5370987;32;36079;-75
2023/07/10 09:56:48;;;;;;;;;;;;;;;38.06;22.27;100546.13;5372354;32;36441;-71
2023/07/10 09:59:52;;;;;;;;;;;;;;;38.35;21.98;100537.00;5378634;32;34391;-74
2023/07/10 10:03:01;;;;;;;;;;;;;;;41.38;18.82;100529.88;5373938;32;33954;-73
2023/07/10 10:06:25;;;;;;;;;;;;;;;41.00;18.65;100541.00;5359993;32;35616;-81
2023/07/10 10:09:29;;;;;;;;;;;;;;;41.49;18.25;100528.06;5365700;32;36206;-73
2023/07/10 10:12:33;;;;;;;;;;;;;;;40.66;18.76;100513.56;5374032;32;35248;-75
2023/07/10 10:15:40;;;;;;;;;;;;;;;40.69;18.69;100510.28;5380463;32;34155;-72
2023/07/10 10:18:45;;;;;;;;;;;;;;;39.39;20.16;100530.69;5377217;32;34294;-75
2023/07/10 10:21:48;;;;;;;;;;;;;;;39.27;20.44;100517.00;5359230;32;34320;-70
2023/07/10 10:24:50;;;;;;;;;;;;;;;40.86;18.85;100513.81;5375388;32;34696;-74
2023/07/10 10:27:59;;;;;;;;;;;;;;;41.71;18.16;100514.19;5354170;32;34058;-79
2023/07/10 10:31:03;;;;;;;;;;;;;;;41.24;18.14;100509.31;5336687;32;36389;-72
2023/07/10 10:34:16;;;;;;;;;;;;;;;41.32;18.05;100506.09;5363474;32;36231;-70
2023/07/10 10:37:37;;;;;;;;;;;;;;;41.71;17.82;100496.81;5364086;32;35040;-69
2023/07/10 10:40:39;;;;;;;;;;;;;;;41.86;17.95;100497.78;5354002;32;35878;-79
2023/07/10 10:43:43;;;;;;;;;;;;;;;41.74;17.83;100493.56;5371718;32;35092;-74
2023/07/10 10:46:49;;;;;;;;;;;;;;;43.64;16.04;100497.75;5359456;32;36457;-71
2023/07/10 10:49:56;;;;;;;;;;;;;;;41.15;18.28;100497.06;5366914;32;35989;-79
2023/07/10 10:53:17;;;;;;;;;;;;;;;40.64;18.65;100488.16;5368163;32;36324;-76
2023/07/10 10:56:27;;;;;;;;;;;;;;;41.16;17.61;100496.00;5380547;32;34621;-77
2023/07/10 10:59:44;;;;;;;;;;;;;;;40.16;18.77;100500.69;5401386;32;35501;-76
2023/07/10 11:03:07;;;;;;;;;;;;;;;39.69;19.92;100497.44;5411133;32;35140;-74
2023/07/10 11:06:12;;;;;;;;;;;;;;;40.57;19.87;100482.84;5410158;32;34417;-71
2023/07/10 11:09:41;;;;;;;;;;;;;;;42.02;18.11;100481.34;5412122;32;34372;-74
2023/07/10 11:12:43;;;;;;;;;;;;;;;41.60;18.64;100479.31;5402295;32;34838;-78
2023/07/10 11:15:48;;;;;;;;;;;;;;;42.35;17.71;100474.66;5406977;32;34854;-83
2023/07/10 11:18:50;;;;;;;;;;;;;;;43.77;16.74;100468.69;5398318;32;36181;-82
2023/07/10 11:21:52;;;;;;;;;;;;;;;42.28;17.86;100469.38;5398222;32;35388;-80
2023/07/10 11:24:54;;;;;;;;;;;;;;;42.17;18.04;100464.91;5407636;32;35893;-82
2023/07/10 11:27:56;;;;;;;;;;;;;;;44.41;16.00;100459.75;5398606;32;34585;-77
2023/07/10 11:31:17;;;;;;;;;;;;;;;45.52;15.11;100456.66;5385469;32;33520;-76
2023/07/10 11:34:23;;;;;;;;;;;;;;;44.02;16.22;100465.09;5410170;32;34349;-82
2023/07/10 11:37:39;;;;;;;;;;;;;;;42.35;16.93;100455.34;5415090;32;34740;-74
2023/07/10 11:40:41;;;;;;;;;;;;;;;41.60;17.65;100451.72;5412575;32;36020;-77
2023/07/10 11:43:48;;;;;;;;;;;;;;;41.54;17.77;100444.50;5396536;32;34150;-72
2023/07/10 11:46:57;;;;;;;;;;;;;;;42.83;16.19;100445.91;5403327;32;34645;-80
2023/07/10 11:50:00;;;;;;;;;;;;;;;40.64;17.83;100460.63;5414321;32;34385;-74
2023/07/10 11:53:15;;;;;;;;;;;;;;;40.39;17.61;100441.84;5418180;32;34771;-76
2023/07/10 11:56:19;;;;;;;;;;;;;;;42.24;15.60;100442.56;5409078;32;35963;-73
2023/07/10 11:59:22;;;;;;;;;;;;;;;43.70;14.96;100438.53;5403510;32;36714;-75
2023/07/10 12:02:44;;;;;;;;;;;;;;;44.23;14.16;100427.13;5397765;32;34243;-83
2023/07/10 12:05:46;;;;;;;;;;;;;;;42.86;15.42;100419.63;5399412;32;32687;-71
2023/07/10 12:08:49;;;;;;;;;;;;;;;41.12;16.93;100423.16;5419574;32;34558;-75
2023/07/10 12:11:54;;;;;;;;;;;;;;;42.10;15.98;100420.09;5415579;32;34353;-81
2023/07/10 12:14:57;;;;;;;;;;;;;;;41.22;17.00;100426.03;5402023;32;34351;-78
2023/07/10 12:18:02;;;;;;;;;;;;;;;39.88;18.33;100424.59;5415689;32;34902;-78
2023/07/10 12:21:05;;;;;;;;;;;;;;;40.28;18.03;100418.84;5401335;32;36292;-75
2023/07/10 12:24:09;;;;;;;;;;;;;;;40.04;18.02;100409.97;5409444;32;34164;-69
2023/07/10 12:27:11;;;;;;;;;;;;;;;40.09;17.44;100414.72;5405045;32;34427;-78
2023/07/10 12:30:18;;;;;;;;;;;;;;;40.08;17.11;100415.00;5425285;32;34715;-80
2023/07/10 12:33:29;;;;;;;;;;;;;;;39.40;17.87;100412.22;5406141;32;34841;-69
2023/07/10 12:36:32;;;;;;;;;;;;;;;38.94;19.17;100411.38;5418562;32;34135;-81
2023/07/10 12:39:34;;;;;;;;;;;;;;;38.03;20.08;100413.00;5399245;32;34300;-75
2023/07/10 12:42:37;;;;;;;;;;;;;;;36.61;20.56;100421.88;5409385;32;34101;-77
2023/07/10 12:45:40;;;;;;;;;;;;;;;37.97;19.00;100408.47;5421056;32;34168;-80
2023/07/10 12:48:42;;;;;;;;;;;;;;;37.48;19.34;100421.53;5423817;32;35424;-77
2023/07/10 12:51:45;;;;;;;;;;;;;;;37.57;19.23;100417.38;5406402;32;34305;-73
2023/07/10 12:54:48;;;;;;;;;;;;;;;37.72;19.68;100430.63;5419795;32;35700;-71
2023/07/10 12:57:50;;;;;;;;;;;;;;;36.46;21.87;100426.94;5404227;32;37013;-73
2023/07/10 13:01:14;;;;;;;;;;;;;;;37.23;21.09;100418.09;5405647;32;35041;-75
2023/07/10 13:04:26;;;;;;;;;;;;;;;36.94;20.89;100426.13;5400203;32;33910;-74
2023/07/10 13:07:32;;;;;;;;;;;;;;;37.40;20.61;100411.75;5419039;32;35796;-72
2023/07/10 13:10:41;;;;;;;;;;;;;;;36.39;21.91;100414.38;5419269;32;34155;-71
2023/07/10 13:13:49;;;;;;;;;;;;;;;36.91;21.40;100412.06;5400387;32;33644;-71
2023/07/10 13:17:03;;;;;;;;;;;;;;;36.57;21.70;100409.72;5407874;32;34479;-80
2023/07/10 13:20:16;;;;;;;;;;;;;;;36.95;20.27;100408.62;5407686;32;37267;-79
2023/07/10 13:23:18;;;;;;;;;;;;;;;37.08;20.77;100405.69;5410533;32;36299;-74
2023/07/10 13:26:22;;;;;;;;;;;;;;;37.87;20.06;100403.59;5422768;32;36271;-81
2023/07/10 13:29:25;;;;;;;;;;;;;;;37.21;20.52;100403.81;5410038;32;34289;-89
2023/07/10 13:32:28;;;;;;;;;;;;;;;37.94;18.31;100403.47;5408467;32;37248;-79
2023/07/10 13:35:30;;;;;;;;;;;;;;;37.75;18.24;100389.03;5422273;32;34200;-71
2023/07/10 13:38:32;;;;;;;;;;;;;;;37.47;18.58;100392.44;5419143;32;34378;-69
2023/07/10 13:41:36;;;;;;;;;;;;;;;37.37;18.46;100384.81;5416382;32;34819;-77
2023/07/10 13:44:39;;;;;;;;;;;;;;;37.24;19.18;100392.41;5423959;32;35586;-74
2023/07/10 13:47:42;;;;;;;;;;;;;;;36.81;19.20;100396.16;5421305;32;36361;-88
2023/07/10 13:50:47;;;;;;;;;;;;;;;38.00;18.44;100391.56;5416591;32;35741;-73
2023/07/10 13:53:49;;;;;;;;;;;;;;;36.20;19.84;100389.75;5408531;32;34244;-80
2023/07/10 13:56:51;;;;;;;;;;;;;;;36.54;20.18;100388.28;5402420;32;34116;-76
2023/07/10 13:59:54;;;;;;;;;;;;;;;36.90;19.49;100388.47;5428270;32;34320;-73
2023/07/10 14:02:57;;;;;;;;;;;;;;;36.19;19.94;100384.47;5410874;32;35956;-85
2023/07/10 14:06:00;;;;;;;;;;;;;;;36.83;18.43;100386.63;5415118;32;35657;-76
2023/07/10 14:09:04;;;;;;;;;;;;;;;37.66;17.79;100377.56;5418042;32;34812;-74
2023/07/10 14:12:11;;;;;;;;;;;;;;;37.17;18.58;100380.72;5389255;32;34179;-76
2023/07/10 14:15:16;;;;;;;;;;;;;;;37.34;18.10;100368.00;5394740;32;36047;-83
2023/07/10 14:18:22;;;;;;;;;;;;;;;37.71;17.06;100367.78;5405215;32;34911;-78
2023/07/10 14:21:24;;;;;;;;;;;;;;;36.23;18.94;100370.13;5389535;32;35507;-71
2023/07/10 14:24:27;;;;;;;;;;;;;;;36.65;19.27;100369.41;5414466;32;34237;-81
2023/07/10 14:27:30;;;;;;;;;;;;;;;37.43;17.79;100363.03;5399754;32;35657;-82
2023/07/10 14:30:34;;;;;;;;;;;;;;;36.36;18.45;100366.37;5418452;32;34558;-74
2023/07/10 14:33:36;;;;;;;;;;;;;;;37.10;17.73;100361.63;5416389;32;34520;-72
2023/07/10 14:36:43;;;;;;;;;;;;;;;36.67;18.39;100359.91;5415811;32;34522;-73
2023/07/10 14:39:46;;;;;;;;;;;;;;;37.06;18.69;100364.00;5379233;32;34311;-77
2023/07/10 14:42:48;;;;;;;;;;;;;;;37.56;18.41;100355.41;5400274;32;34788;-81
2023/07/10 14:45:51;;;;;;;;;;;;;;;36.91;18.90;100352.66;5417213;32;35605;-81
2023/07/10 14:48:55;;;;;;;;;;;;;;;37.09;18.90;100363.50;5392392;32;36520;-78
2023/07/10 14:51:59;;;;;;;;;;;;;;;37.25;19.24;100362.00;5399986;32;35338;-80
2023/07/10 14:55:03;;;;;;;;;;;;;;;37.39;19.37;100366.22;5419665;32;34442;-83
2023/07/10 14:58:11;;;;;;;;;;;;;;;36.98;19.97;100372.56;5421495;32;34710;-76
2023/07/10 15:01:15;;;;;;;;;;;;;;;37.70;19.39;100366.97;5403811;32;33194;-73
2023/07/10 15:04:17;;;;;;;;;;;;;;;37.06;20.16;100358.50;5414474;32;34382;-72
2023/07/10 15:07:20;;;;;;;;;;;;;;;36.26;21.11;100364.19;5403261;32;33274;-71
2023/07/10 15:10:23;;;;;;;;;;;;;;;36.97;20.41;100359.06;5415624;32;34216;-72
2023/07/10 15:13:29;;;;;;;;;;;;;;;36.86;20.92;100358.81;5420734;32;35896;-76
2023/07/10 15:16:32;;;;;;;;;;;;;;;36.54;21.11;100349.13;5399054;32;36104;-74
2023/07/10 15:19:35;;;;;;;;;;;;;;;37.54;20.27;100343.81;5398900;32;34597;-84
2023/07/10 15:22:40;;;;;;;;;;;;;;;35.74;21.87;100362.81;5403452;32;33600;-85
2023/07/10 15:25:43;;;;;;;;;;;;;;;35.27;22.59;100367.84;5412949;32;35832;-86
2023/07/10 15:28:52;;;;;;;;;;;;;;;35.17;22.96;100364.78;5409452;32;34023;-82
2023/07/10 15:31:58;;;;;;;;;;;;;;;35.38;22.74;100371.75;5404568;32;34316;-76
2023/07/10 15:35:01;;;;;;;;;;;;;;;35.62;22.25;100357.28;5399239;32;35408;-76
2023/07/10 15:38:03;;;;;;;;;;;;;;;35.47;22.40;100368.53;5411033;32;34852;-77
2023/07/10 15:41:05;;;;;;;;;;;;;;;35.73;22.21;100363.88;5417534;32;36675;-77
2023/07/10 15:44:11;;;;;;;;;;;;;;;35.10;22.78;100367.56;5392739;32;34605;-81